sensor_id;sensor_type;location;lat;lon;timestamp;temperature;humidity
74537;SHT31;63013;51.104;-115.370;2023-05-10T00:01:06;20.10;42.58
74537;SHT31;63013;51.104;-115.370;2023-05-10T00:03:33;20.10;42.61
74537;SHT31;63013;51.104;-115.370;2023-05-10T00:06:00;20.11;42.72
74537;SHT31;63013;51.104;-115.370;2023-05-10T00:08:26;20.10;42.85
74537;SHT31;63013;51.104;-115.370;2023-05-10T00:10:54;20.11;43.06
74537;SHT31;63013;51.104;-115.370;2023-05-10T00:13:21;20.11;43.25
74537;SHT31;63013;51.104;-115.370;2023-05-10T00:15:48;20.13;43.44
74537;SHT31;63013;51.104;-115.370;2023-05-10T00:18:15;20.13;43.63
74537;SHT31;63013;51.104;-115.370;2023-05-10T00:20:42;20.13;43.87
74537;SHT31;63013;51.104;-115.370;2023-05-10T00:23:11;20.13;43.93
74537;SHT31;63013;51.104;-115.370;2023-05-10T00:25:38;20.13;44.01
74537;SHT31;63013;51.104;-115.370;2023-05-10T00:28:05;20.15;44.17
74537;SHT31;63013;51.104;-115.370;2023-05-10T00:30:32;20.15;44.35
74537;SHT31;63013;51.104;-115.370;2023-05-10T00:32:59;20.15;44.55
74537;SHT31;63013;51.104;-115.370;2023-05-10T00:35:27;20.15;44.44
74537;SHT31;63013;51.104;-115.370;2023-05-10T00:37:54;20.15;44.43
74537;SHT31;63013;51.104;-115.370;2023-05-10T00:40:21;20.15;44.40
74537;SHT31;63013;51.104;-115.370;2023-05-10T00:42:48;20.16;44.38
74537;SHT31;63013;51.104;-115.370;2023-05-10T00:45:16;20.16;44.45
74537;SHT31;63013;51.104;-115.370;2023-05-10T00:47:43;20.17;44.83
74537;SHT31;63013;51.104;-115.370;2023-05-10T00:50:10;20.17;45.19
74537;SHT31;63013;51.104;-115.370;2023-05-10T00:52:37;20.17;45.43
74537;SHT31;63013;51.104;-115.370;2023-05-10T00:55:04;20.17;45.55
74537;SHT31;63013;51.104;-115.370;2023-05-10T00:57:33;20.17;45.63
74537;SHT31;63013;51.104;-115.370;2023-05-10T01:00:00;20.18;45.69
74537;SHT31;63013;51.104;-115.370;2023-05-10T01:02:29;20.18;45.66
74537;SHT31;63013;51.104;-115.370;2023-05-10T01:04:56;20.19;45.56
74537;SHT31;63013;51.104;-115.370;2023-05-10T01:07:23;20.18;45.50
74537;SHT31;63013;51.104;-115.370;2023-05-10T01:09:50;20.19;45.52
74537;SHT31;63013;51.104;-115.370;2023-05-10T01:12:18;20.19;45.57
74537;SHT31;63013;51.104;-115.370;2023-05-10T01:14:45;20.19;45.49
74537;SHT31;63013;51.104;-115.370;2023-05-10T01:17:13;20.19;45.46
74537;SHT31;63013;51.104;-115.370;2023-05-10T01:19:41;20.20;45.39
74537;SHT31;63013;51.104;-115.370;2023-05-10T01:28:23;20.19;45.13
74537;SHT31;63013;51.104;-115.370;2023-05-10T01:35:02;20.19;44.96
74537;SHT31;63013;51.104;-115.370;2023-05-10T01:40:21;20.19;44.85
74537;SHT31;63013;51.104;-115.370;2023-05-10T01:42:57;20.20;44.83
74537;SHT31;63013;51.104;-115.370;2023-05-10T01:48:16;20.20;45.09
74537;SHT31;63013;51.104;-115.370;2023-05-10T01:50:46;20.21;45.09
74537;SHT31;63013;51.104;-115.370;2023-05-10T01:53:17;20.22;45.10
74537;SHT31;63013;51.104;-115.370;2023-05-10T01:55:48;20.22;45.02
74537;SHT31;63013;51.104;-115.370;2023-05-10T01:58:26;20.22;44.99
74537;SHT31;63013;51.104;-115.370;2023-05-10T02:00:59;20.22;44.92
74537;SHT31;63013;51.104;-115.370;2023-05-10T02:03:30;20.21;44.85
74537;SHT31;63013;51.104;-115.370;2023-05-10T02:05:59;20.22;44.80
74537;SHT31;63013;51.104;-115.370;2023-05-10T02:08:27;20.22;44.77
74537;SHT31;63013;51.104;-115.370;2023-05-10T02:10:57;20.22;44.77
74537;SHT31;63013;51.104;-115.370;2023-05-10T02:13:26;20.22;44.70
74537;SHT31;63013;51.104;-115.370;2023-05-10T02:15:57;20.22;44.67
74537;SHT31;63013;51.104;-115.370;2023-05-10T02:18:26;20.22;44.61
74537;SHT31;63013;51.104;-115.370;2023-05-10T02:20:54;20.22;44.60
74537;SHT31;63013;51.104;-115.370;2023-05-10T02:23:22;20.22;44.51
74537;SHT31;63013;51.104;-115.370;2023-05-10T02:25:51;20.22;44.44
74537;SHT31;63013;51.104;-115.370;2023-05-10T02:28:23;20.21;44.40
74537;SHT31;63013;51.104;-115.370;2023-05-10T02:30:51;20.21;44.29
74537;SHT31;63013;51.104;-115.370;2023-05-10T02:33:20;20.21;44.19
74537;SHT31;63013;51.104;-115.370;2023-05-10T02:35:49;20.21;44.20
74537;SHT31;63013;51.104;-115.370;2023-05-10T02:38:18;20.21;44.28
74537;SHT31;63013;51.104;-115.370;2023-05-10T02:40:48;20.20;44.28
74537;SHT31;63013;51.104;-115.370;2023-05-10T02:43:16;20.20;44.21
74537;SHT31;63013;51.104;-115.370;2023-05-10T02:45:46;20.20;44.19
74537;SHT31;63013;51.104;-115.370;2023-05-10T02:48:14;20.19;44.01
74537;SHT31;63013;51.104;-115.370;2023-05-10T02:50:43;20.19;43.90
74537;SHT31;63013;51.104;-115.370;2023-05-10T02:53:18;20.19;43.86
74537;SHT31;63013;51.104;-115.370;2023-05-10T02:55:58;20.19;43.88
74537;SHT31;63013;51.104;-115.370;2023-05-10T02:58:39;20.19;43.82
74537;SHT31;63013;51.104;-115.370;2023-05-10T03:01:07;20.18;43.89
74537;SHT31;63013;51.104;-115.370;2023-05-10T03:03:34;20.17;43.82
74537;SHT31;63013;51.104;-115.370;2023-05-10T03:06:01;20.17;43.86
74537;SHT31;63013;51.104;-115.370;2023-05-10T03:08:28;20.16;43.79
74537;SHT31;63013;51.104;-115.370;2023-05-10T03:19:32;20.14;43.74
74537;SHT31;63013;51.104;-115.370;2023-05-10T03:22:10;20.13;43.71
74537;SHT31;63013;51.104;-115.370;2023-05-10T03:24:42;20.13;43.66
74537;SHT31;63013;51.104;-115.370;2023-05-10T03:27:12;20.12;43.82
74537;SHT31;63013;51.104;-115.370;2023-05-10T03:29:42;20.11;43.96
74537;SHT31;63013;51.104;-115.370;2023-05-10T03:32:11;20.11;44.09
74537;SHT31;63013;51.104;-115.370;2023-05-10T03:34:41;20.09;44.12
74537;SHT31;63013;51.104;-115.370;2023-05-10T03:37:09;20.08;44.10
74537;SHT31;63013;51.104;-115.370;2023-05-10T03:39:36;20.08;44.15
74537;SHT31;63013;51.104;-115.370;2023-05-10T03:42:03;20.07;44.10
74537;SHT31;63013;51.104;-115.370;2023-05-10T03:44:30;20.07;44.10
74537;SHT31;63013;51.104;-115.370;2023-05-10T03:46:58;20.06;44.01
74537;SHT31;63013;51.104;-115.370;2023-05-10T03:49:25;20.06;43.95
74537;SHT31;63013;51.104;-115.370;2023-05-10T03:51:52;20.06;44.00
74537;SHT31;63013;51.104;-115.370;2023-05-10T03:54:20;20.06;44.08
74537;SHT31;63013;51.104;-115.370;2023-05-10T03:56:47;20.05;44.01
74537;SHT31;63013;51.104;-115.370;2023-05-10T03:59:13;20.06;43.78
74537;SHT31;63013;51.104;-115.370;2023-05-10T04:01:41;20.07;43.54
74537;SHT31;63013;51.104;-115.370;2023-05-10T04:04:07;20.07;43.31
74537;SHT31;63013;51.104;-115.370;2023-05-10T04:06:34;20.08;43.16
74537;SHT31;63013;51.104;-115.370;2023-05-10T04:09:01;20.08;43.00
74537;SHT31;63013;51.104;-115.370;2023-05-10T04:11:29;20.08;42.92
74537;SHT31;63013;51.104;-115.370;2023-05-10T04:13:57;20.08;42.91
74537;SHT31;63013;51.104;-115.370;2023-05-10T04:16:24;20.08;43.24
74537;SHT31;63013;51.104;-115.370;2023-05-10T04:18:51;20.10;43.29
74537;SHT31;63013;51.104;-115.370;2023-05-10T04:21:18;20.11;43.02
74537;SHT31;63013;51.104;-115.370;2023-05-10T04:23:45;20.14;43.03
74537;SHT31;63013;51.104;-115.370;2023-05-10T04:26:12;20.16;42.93
74537;SHT31;63013;51.104;-115.370;2023-05-10T04:28:39;20.18;42.87
74537;SHT31;63013;51.104;-115.370;2023-05-10T04:31:07;20.20;42.85
74537;SHT31;63013;51.104;-115.370;2023-05-10T04:33:36;20.20;42.97
74537;SHT31;63013;51.104;-115.370;2023-05-10T04:36:03;20.23;42.98
74537;SHT31;63013;51.104;-115.370;2023-05-10T04:38:30;20.24;43.02
74537;SHT31;63013;51.104;-115.370;2023-05-10T04:41:06;20.26;42.95
74537;SHT31;63013;51.104;-115.370;2023-05-10T04:43:35;20.26;42.99
74537;SHT31;63013;51.104;-115.370;2023-05-10T04:46:03;20.28;43.06
74537;SHT31;63013;51.104;-115.370;2023-05-10T04:48:32;20.28;42.98
74537;SHT31;63013;51.104;-115.370;2023-05-10T04:51:00;20.29;42.82
74537;SHT31;63013;51.104;-115.370;2023-05-10T04:53:27;20.29;42.92
74537;SHT31;63013;51.104;-115.370;2023-05-10T04:55:54;20.29;42.87
74537;SHT31;63013;51.104;-115.370;2023-05-10T04:58:21;20.27;42.78
74537;SHT31;63013;51.104;-115.370;2023-05-10T05:00:48;20.27;42.69
74537;SHT31;63013;51.104;-115.370;2023-05-10T05:03:16;20.25;42.58
74537;SHT31;63013;51.104;-115.370;2023-05-10T05:05:50;20.24;42.59
74537;SHT31;63013;51.104;-115.370;2023-05-10T05:08:18;20.23;42.52
74537;SHT31;63013;51.104;-115.370;2023-05-10T05:10:44;20.22;42.63
74537;SHT31;63013;51.104;-115.370;2023-05-10T05:13:12;20.21;42.68
74537;SHT31;63013;51.104;-115.370;2023-05-10T05:15:39;20.20;42.60
74537;SHT31;63013;51.104;-115.370;2023-05-10T05:18:06;20.19;42.64
74537;SHT31;63013;51.104;-115.370;2023-05-10T05:20:33;20.18;42.65
74537;SHT31;63013;51.104;-115.370;2023-05-10T05:23:01;20.16;42.61
74537;SHT31;63013;51.104;-115.370;2023-05-10T05:25:28;20.15;42.65
74537;SHT31;63013;51.104;-115.370;2023-05-10T05:27:54;20.14;42.60
74537;SHT31;63013;51.104;-115.370;2023-05-10T05:30:21;20.13;42.62
74537;SHT31;63013;51.104;-115.370;2023-05-10T05:32:48;20.12;42.54
74537;SHT31;63013;51.104;-115.370;2023-05-10T05:35:15;20.12;42.60
74537;SHT31;63013;51.104;-115.370;2023-05-10T05:37:42;20.11;42.54
74537;SHT31;63013;51.104;-115.370;2023-05-10T05:40:11;20.09;42.62
74537;SHT31;63013;51.104;-115.370;2023-05-10T05:42:39;20.09;42.64
74537;SHT31;63013;51.104;-115.370;2023-05-10T05:45:06;20.08;42.60
74537;SHT31;63013;51.104;-115.370;2023-05-10T05:47:34;20.06;42.62
74537;SHT31;63013;51.104;-115.370;2023-05-10T05:50:01;20.05;42.59
74537;SHT31;63013;51.104;-115.370;2023-05-10T05:52:28;20.04;42.60
74537;SHT31;63013;51.104;-115.370;2023-05-10T05:54:56;20.03;42.60
74537;SHT31;63013;51.104;-115.370;2023-05-10T05:57:24;20.02;42.63
74537;SHT31;63013;51.104;-115.370;2023-05-10T05:59:52;20.01;42.49
74537;SHT31;63013;51.104;-115.370;2023-05-10T06:02:19;20.00;42.50
74537;SHT31;63013;51.104;-115.370;2023-05-10T06:04:46;19.99;42.44
74537;SHT31;63013;51.104;-115.370;2023-05-10T06:07:13;19.97;42.45
74537;SHT31;63013;51.104;-115.370;2023-05-10T06:09:40;19.96;42.49
74537;SHT31;63013;51.104;-115.370;2023-05-10T06:12:07;19.95;42.43
74537;SHT31;63013;51.104;-115.370;2023-05-10T06:14:33;19.94;42.42
74537;SHT31;63013;51.104;-115.370;2023-05-10T06:17:01;19.92;42.39
74537;SHT31;63013;51.104;-115.370;2023-05-10T06:19:30;19.91;42.46
74537;SHT31;63013;51.104;-115.370;2023-05-10T06:21:57;19.89;42.42
74537;SHT31;63013;51.104;-115.370;2023-05-10T06:24:24;19.89;42.38
74537;SHT31;63013;51.104;-115.370;2023-05-10T06:26:52;19.87;42.39
74537;SHT31;63013;51.104;-115.370;2023-05-10T06:29:19;19.86;42.46
74537;SHT31;63013;51.104;-115.370;2023-05-10T06:31:46;19.85;42.46
74537;SHT31;63013;51.104;-115.370;2023-05-10T06:34:13;19.83;42.46
74537;SHT31;63013;51.104;-115.370;2023-05-10T06:36:40;19.82;42.44
74537;SHT31;63013;51.104;-115.370;2023-05-10T06:39:07;19.81;42.47
74537;SHT31;63013;51.104;-115.370;2023-05-10T06:41:34;19.81;42.48
74537;SHT31;63013;51.104;-115.370;2023-05-10T06:44:01;19.80;42.49
74537;SHT31;63013;51.104;-115.370;2023-05-10T06:46:29;19.79;42.53
74537;SHT31;63013;51.104;-115.370;2023-05-10T06:48:56;19.77;42.48
74537;SHT31;63013;51.104;-115.370;2023-05-10T06:51:23;19.75;42.49
74537;SHT31;63013;51.104;-115.370;2023-05-10T06:53:51;19.75;42.50
74537;SHT31;63013;51.104;-115.370;2023-05-10T06:56:18;19.74;42.63
74537;SHT31;63013;51.104;-115.370;2023-05-10T06:58:47;19.73;42.51
74537;SHT31;63013;51.104;-115.370;2023-05-10T07:01:14;19.72;42.53
74537;SHT31;63013;51.104;-115.370;2023-05-10T07:03:41;19.71;42.40
74537;SHT31;63013;51.104;-115.370;2023-05-10T07:06:08;19.69;42.43
74537;SHT31;63013;51.104;-115.370;2023-05-10T07:08:34;19.68;42.38
74537;SHT31;63013;51.104;-115.370;2023-05-10T07:11:02;19.68;42.42
74537;SHT31;63013;51.104;-115.370;2023-05-10T07:13:32;19.67;42.46
74537;SHT31;63013;51.104;-115.370;2023-05-10T07:16:00;19.65;42.49
74537;SHT31;63013;51.104;-115.370;2023-05-10T07:18:27;19.64;42.54
74537;SHT31;63013;51.104;-115.370;2023-05-10T07:20:54;19.63;42.49
74537;SHT31;63013;51.104;-115.370;2023-05-10T07:23:23;19.62;42.46
74537;SHT31;63013;51.104;-115.370;2023-05-10T07:25:50;19.61;42.48
74537;SHT31;63013;51.104;-115.370;2023-05-10T07:28:18;19.59;42.49
74537;SHT31;63013;51.104;-115.370;2023-05-10T07:30:45;19.58;42.42
74537;SHT31;63013;51.104;-115.370;2023-05-10T07:33:13;19.58;42.46
74537;SHT31;63013;51.104;-115.370;2023-05-10T07:35:41;19.56;42.54
74537;SHT31;63013;51.104;-115.370;2023-05-10T07:38:08;19.55;42.46
74537;SHT31;63013;51.104;-115.370;2023-05-10T07:40:36;19.54;42.53
74537;SHT31;63013;51.104;-115.370;2023-05-10T07:43:04;19.52;42.53
74537;SHT31;63013;51.104;-115.370;2023-05-10T07:45:32;19.52;42.51
74537;SHT31;63013;51.104;-115.370;2023-05-10T07:48:00;19.51;42.47
74537;SHT31;63013;51.104;-115.370;2023-05-10T07:50:27;19.49;42.52
74537;SHT31;63013;51.104;-115.370;2023-05-10T07:52:54;19.48;42.55
74537;SHT31;63013;51.104;-115.370;2023-05-10T07:55:21;19.47;42.59
74537;SHT31;63013;51.104;-115.370;2023-05-10T07:57:48;19.45;42.64
74537;SHT31;63013;51.104;-115.370;2023-05-10T08:00:19;19.44;42.60
74537;SHT31;63013;51.104;-115.370;2023-05-10T08:02:46;19.43;42.59
74537;SHT31;63013;51.104;-115.370;2023-05-10T08:05:14;19.42;42.60
74537;SHT31;63013;51.104;-115.370;2023-05-10T08:07:41;19.40;42.60
74537;SHT31;63013;51.104;-115.370;2023-05-10T08:10:08;19.40;42.59
74537;SHT31;63013;51.104;-115.370;2023-05-10T08:12:39;19.38;42.60
74537;SHT31;63013;51.104;-115.370;2023-05-10T08:15:07;19.37;42.55
74537;SHT31;63013;51.104;-115.370;2023-05-10T08:17:35;19.35;42.54
74537;SHT31;63013;51.104;-115.370;2023-05-10T08:20:02;19.35;42.54
74537;SHT31;63013;51.104;-115.370;2023-05-10T08:22:29;19.33;42.53
74537;SHT31;63013;51.104;-115.370;2023-05-10T08:24:57;19.32;42.49
74537;SHT31;63013;51.104;-115.370;2023-05-10T08:27:24;19.31;42.51
74537;SHT31;63013;51.104;-115.370;2023-05-10T08:29:51;19.30;42.51
74537;SHT31;63013;51.104;-115.370;2023-05-10T08:32:18;19.29;42.56
74537;SHT31;63013;51.104;-115.370;2023-05-10T08:34:45;19.27;42.59
74537;SHT31;63013;51.104;-115.370;2023-05-10T08:37:12;19.26;42.58
74537;SHT31;63013;51.104;-115.370;2023-05-10T08:39:40;19.24;42.57
74537;SHT31;63013;51.104;-115.370;2023-05-10T08:42:07;19.23;42.60
74537;SHT31;63013;51.104;-115.370;2023-05-10T08:44:36;19.21;42.61
74537;SHT31;63013;51.104;-115.370;2023-05-10T08:47:06;19.20;42.68
74537;SHT31;63013;51.104;-115.370;2023-05-10T08:49:34;19.19;42.65
74537;SHT31;63013;51.104;-115.370;2023-05-10T08:52:03;19.19;42.66
74537;SHT31;63013;51.104;-115.370;2023-05-10T08:54:32;19.18;42.66
74537;SHT31;63013;51.104;-115.370;2023-05-10T08:57:00;19.17;42.68
74537;SHT31;63013;51.104;-115.370;2023-05-10T08:59:28;19.14;42.66
74537;SHT31;63013;51.104;-115.370;2023-05-10T09:01:57;19.13;42.68
74537;SHT31;63013;51.104;-115.370;2023-05-10T09:04:25;19.14;42.70
74537;SHT31;63013;51.104;-115.370;2023-05-10T09:06:53;19.12;42.72
74537;SHT31;63013;51.104;-115.370;2023-05-10T09:09:20;19.11;42.85
74537;SHT31;63013;51.104;-115.370;2023-05-10T09:11:49;19.11;42.91
74537;SHT31;63013;51.104;-115.370;2023-05-10T09:14:18;19.11;42.95
74537;SHT31;63013;51.104;-115.370;2023-05-10T09:16:46;19.10;42.96
74537;SHT31;63013;51.104;-115.370;2023-05-10T09:19:13;19.10;42.93
74537;SHT31;63013;51.104;-115.370;2023-05-10T09:21:40;19.08;42.85
74537;SHT31;63013;51.104;-115.370;2023-05-10T09:24:07;19.08;42.78
74537;SHT31;63013;51.104;-115.370;2023-05-10T09:26:35;19.09;42.67
74537;SHT31;63013;51.104;-115.370;2023-05-10T09:29:15;19.08;42.58
74537;SHT31;63013;51.104;-115.370;2023-05-10T09:31:49;19.08;42.51
74537;SHT31;63013;51.104;-115.370;2023-05-10T09:34:20;19.08;42.42
74537;SHT31;63013;51.104;-115.370;2023-05-10T09:36:57;19.07;42.32
74537;SHT31;63013;51.104;-115.370;2023-05-10T09:39:34;19.06;42.22
74537;SHT31;63013;51.104;-115.370;2023-05-10T09:42:04;19.07;42.37
74537;SHT31;63013;51.104;-115.370;2023-05-10T09:44:35;19.06;42.60
74537;SHT31;63013;51.104;-115.370;2023-05-10T09:47:03;19.05;42.77
74537;SHT31;63013;51.104;-115.370;2023-05-10T09:49:30;19.05;42.82
74537;SHT31;63013;51.104;-115.370;2023-05-10T09:52:05;19.05;42.89
74537;SHT31;63013;51.104;-115.370;2023-05-10T09:54:33;19.04;42.90
74537;SHT31;63013;51.104;-115.370;2023-05-10T09:57:01;19.03;42.83
74537;SHT31;63013;51.104;-115.370;2023-05-10T09:59:29;19.02;42.80
74537;SHT31;63013;51.104;-115.370;2023-05-10T10:02:00;19.02;42.80
74537;SHT31;63013;51.104;-115.370;2023-05-10T10:04:28;19.01;42.74
74537;SHT31;63013;51.104;-115.370;2023-05-10T10:06:58;19.00;42.71
74537;SHT31;63013;51.104;-115.370;2023-05-10T10:09:28;18.99;42.66
74537;SHT31;63013;51.104;-115.370;2023-05-10T10:11:55;18.99;42.67
74537;SHT31;63013;51.104;-115.370;2023-05-10T10:14:23;18.98;42.61
74537;SHT31;63013;51.104;-115.370;2023-05-10T10:16:51;18.97;42.57
74537;SHT31;63013;51.104;-115.370;2023-05-10T10:19:19;18.96;42.52
74537;SHT31;63013;51.104;-115.370;2023-05-10T10:21:47;18.96;42.49
74537;SHT31;63013;51.104;-115.370;2023-05-10T10:24:16;18.94;42.48
74537;SHT31;63013;51.104;-115.370;2023-05-10T10:26:43;18.93;42.46
74537;SHT31;63013;51.104;-115.370;2023-05-10T10:32:19;18.92;42.51
74537;SHT31;63013;51.104;-115.370;2023-05-10T10:35:08;18.89;42.89
74537;SHT31;63013;51.104;-115.370;2023-05-10T10:37:45;18.90;43.03
74537;SHT31;63013;51.104;-115.370;2023-05-10T10:40:28;18.89;43.10
74537;SHT31;63013;51.104;-115.370;2023-05-10T10:46:23;18.88;43.10
74537;SHT31;63013;51.104;-115.370;2023-05-10T10:51:39;18.85;43.00
74537;SHT31;63013;51.104;-115.370;2023-05-10T10:54:29;18.85;42.99
74537;SHT31;63013;51.104;-115.370;2023-05-10T10:57:11;18.84;42.91
74537;SHT31;63013;51.104;-115.370;2023-05-10T10:59:43;18.84;42.90
74537;SHT31;63013;51.104;-115.370;2023-05-10T11:02:32;18.82;42.82
74537;SHT31;63013;51.104;-115.370;2023-05-10T11:08:06;18.80;42.80
74537;SHT31;63013;51.104;-115.370;2023-05-10T11:10:48;18.79;42.80
74537;SHT31;63013;51.104;-115.370;2023-05-10T11:16:21;18.77;42.78
74537;SHT31;63013;51.104;-115.370;2023-05-10T11:18:54;18.76;43.00
74537;SHT31;63013;51.104;-115.370;2023-05-10T11:21:33;18.76;43.15
74537;SHT31;63013;51.104;-115.370;2023-05-10T11:24:21;18.77;43.21
74537;SHT31;63013;51.104;-115.370;2023-05-10T11:26:53;18.77;43.20
74537;SHT31;63013;51.104;-115.370;2023-05-10T11:29:20;18.77;43.20
74537;SHT31;63013;51.104;-115.370;2023-05-10T11:31:48;18.76;43.19
74537;SHT31;63013;51.104;-115.370;2023-05-10T11:34:23;18.75;43.12
74537;SHT31;63013;51.104;-115.370;2023-05-10T11:36:52;18.74;43.11
74537;SHT31;63013;51.104;-115.370;2023-05-10T11:39:21;18.73;43.08
74537;SHT31;63013;51.104;-115.370;2023-05-10T11:41:57;18.72;43.06
74537;SHT31;63013;51.104;-115.370;2023-05-10T11:44:31;18.71;43.00
74537;SHT31;63013;51.104;-115.370;2023-05-10T11:47:02;18.71;42.95
74537;SHT31;63013;51.104;-115.370;2023-05-10T11:49:29;18.71;42.92
74537;SHT31;63013;51.104;-115.370;2023-05-10T11:52:06;18.69;42.89
74537;SHT31;63013;51.104;-115.370;2023-05-10T11:54:34;18.68;42.89
74537;SHT31;63013;51.104;-115.370;2023-05-10T11:57:01;18.67;42.87
74537;SHT31;63013;51.104;-115.370;2023-05-10T11:59:29;18.67;42.89
74537;SHT31;63013;51.104;-115.370;2023-05-10T12:01:56;18.66;43.12
74537;SHT31;63013;51.104;-115.370;2023-05-10T12:04:23;18.66;43.24
74537;SHT31;63013;51.104;-115.370;2023-05-10T12:06:51;18.66;43.29
74537;SHT31;63013;51.104;-115.370;2023-05-10T12:09:18;18.67;43.29
74537;SHT31;63013;51.104;-115.370;2023-05-10T12:11:45;18.67;43.30
74537;SHT31;63013;51.104;-115.370;2023-05-10T12:14:12;18.66;43.26
74537;SHT31;63013;51.104;-115.370;2023-05-10T12:16:40;18.66;43.21
74537;SHT31;63013;51.104;-115.370;2023-05-10T12:19:09;18.65;43.20
74537;SHT31;63013;51.104;-115.370;2023-05-10T12:21:36;18.65;43.19
74537;SHT31;63013;51.104;-115.370;2023-05-10T12:24:04;18.64;43.12
74537;SHT31;63013;51.104;-115.370;2023-05-10T12:26:31;18.63;43.13
74537;SHT31;63013;51.104;-115.370;2023-05-10T12:31:55;18.62;43.03
74537;SHT31;63013;51.104;-115.370;2023-05-10T12:34:31;18.61;43.00
74537;SHT31;63013;51.104;-115.370;2023-05-10T12:37:00;18.61;42.99
74537;SHT31;63013;51.104;-115.370;2023-05-10T12:39:44;18.60;42.99
74537;SHT31;63013;51.104;-115.370;2023-05-10T12:42:11;18.59;42.94
74537;SHT31;63013;51.104;-115.370;2023-05-10T12:44:38;18.59;43.21
74537;SHT31;63013;51.104;-115.370;2023-05-10T12:47:06;18.59;43.33
74537;SHT31;63013;51.104;-115.370;2023-05-10T12:49:33;18.60;43.38
74537;SHT31;63013;51.104;-115.370;2023-05-10T12:52:00;18.61;43.37
74537;SHT31;63013;51.104;-115.370;2023-05-10T12:54:27;18.61;43.37
74537;SHT31;63013;51.104;-115.370;2023-05-10T12:56:54;18.60;43.34
74537;SHT31;63013;51.104;-115.370;2023-05-10T12:59:21;18.60;43.30
74537;SHT31;63013;51.104;-115.370;2023-05-10T13:01:48;18.60;43.30
74537;SHT31;63013;51.104;-115.370;2023-05-10T13:04:15;18.60;43.27
74537;SHT31;63013;51.104;-115.370;2023-05-10T13:06:42;18.58;43.21
74537;SHT31;63013;51.104;-115.370;2023-05-10T13:09:09;18.58;43.21
74537;SHT31;63013;51.104;-115.370;2023-05-10T13:11:36;18.57;43.18
74537;SHT31;63013;51.104;-115.370;2023-05-10T13:14:03;18.57;43.12
74537;SHT31;63013;51.104;-115.370;2023-05-10T13:16:30;18.55;43.08
74537;SHT31;63013;51.104;-115.370;2023-05-10T13:18:58;18.55;43.10
74537;SHT31;63013;51.104;-115.370;2023-05-10T13:21:25;18.54;43.04
74537;SHT31;63013;51.104;-115.370;2023-05-10T13:23:53;18.52;43.00
74537;SHT31;63013;51.104;-115.370;2023-05-10T13:26:20;18.53;43.05
74537;SHT31;63013;51.104;-115.370;2023-05-10T13:28:48;18.52;43.26
74537;SHT31;63013;51.104;-115.370;2023-05-10T13:31:17;18.54;43.36
74537;SHT31;63013;51.104;-115.370;2023-05-10T13:33:43;18.54;43.40
74537;SHT31;63013;51.104;-115.370;2023-05-10T13:36:11;18.54;43.41
74537;SHT31;63013;51.104;-115.370;2023-05-10T13:38:38;18.54;43.40
74537;SHT31;63013;51.104;-115.370;2023-05-10T13:41:04;18.54;43.40
74537;SHT31;63013;51.104;-115.370;2023-05-10T13:43:32;18.54;43.40
74537;SHT31;63013;51.104;-115.370;2023-05-10T13:45:59;18.53;43.33
74537;SHT31;63013;51.104;-115.370;2023-05-10T13:48:26;18.53;43.31
74537;SHT31;63013;51.104;-115.370;2023-05-10T13:50:53;18.52;43.29
74537;SHT31;63013;51.104;-115.370;2023-05-10T13:53:20;18.52;43.24
74537;SHT31;63013;51.104;-115.370;2023-05-10T13:55:47;18.51;43.20
74537;SHT31;63013;51.104;-115.370;2023-05-10T13:58:15;18.51;43.19
74537;SHT31;63013;51.104;-115.370;2023-05-10T14:00:41;18.50;43.18
74537;SHT31;63013;51.104;-115.370;2023-05-10T14:03:09;18.50;43.14
74537;SHT31;63013;51.104;-115.370;2023-05-10T14:05:36;18.49;43.11
74537;SHT31;63013;51.104;-115.370;2023-05-10T14:08:03;18.49;43.10
74537;SHT31;63013;51.104;-115.370;2023-05-10T14:10:30;18.49;43.31
74537;SHT31;63013;51.104;-115.370;2023-05-10T14:12:57;18.50;43.41
74537;SHT31;63013;51.104;-115.370;2023-05-10T14:15:24;18.51;43.43
74537;SHT31;63013;51.104;-115.370;2023-05-10T14:17:51;18.51;43.41
74537;SHT31;63013;51.104;-115.370;2023-05-10T14:20:18;18.52;43.42
74537;SHT31;63013;51.104;-115.370;2023-05-10T14:22:45;18.50;43.41
74537;SHT31;63013;51.104;-115.370;2023-05-10T14:25:13;18.50;43.43
74537;SHT31;63013;51.104;-115.370;2023-05-10T14:27:40;18.50;43.40
74537;SHT31;63013;51.104;-115.370;2023-05-10T14:30:07;18.51;43.40
74537;SHT31;63013;51.104;-115.370;2023-05-10T14:32:35;18.49;43.41
74537;SHT31;63013;51.104;-115.370;2023-05-10T14:35:02;18.49;43.42
74537;SHT31;63013;51.104;-115.370;2023-05-10T14:37:31;18.48;43.40
74537;SHT31;63013;51.104;-115.370;2023-05-10T14:39:58;18.48;43.45
74537;SHT31;63013;51.104;-115.370;2023-05-10T14:42:25;18.47;43.43
74537;SHT31;63013;51.104;-115.370;2023-05-10T14:44:52;18.48;43.44
74537;SHT31;63013;51.104;-115.370;2023-05-10T14:47:19;18.47;43.59
74537;SHT31;63013;51.104;-115.370;2023-05-10T14:49:46;18.46;43.73
74537;SHT31;63013;51.104;-115.370;2023-05-10T14:52:13;18.46;43.79
74537;SHT31;63013;51.104;-115.370;2023-05-10T14:54:40;18.46;43.79
74537;SHT31;63013;51.104;-115.370;2023-05-10T14:57:07;18.45;43.75
74537;SHT31;63013;51.104;-115.370;2023-05-10T14:59:34;18.45;43.68
74537;SHT31;63013;51.104;-115.370;2023-05-10T15:02:01;18.45;43.69
74537;SHT31;63013;51.104;-115.370;2023-05-10T15:04:29;18.43;43.69
74537;SHT31;63013;51.104;-115.370;2023-05-10T15:06:56;18.42;43.66
74537;SHT31;63013;51.104;-115.370;2023-05-10T15:09:24;18.42;43.89
74537;SHT31;63013;51.104;-115.370;2023-05-10T15:11:53;18.44;44.07
74537;SHT31;63013;51.104;-115.370;2023-05-10T15:14:20;18.45;44.13
74537;SHT31;63013;51.104;-115.370;2023-05-10T15:16:48;18.47;44.14
74537;SHT31;63013;51.104;-115.370;2023-05-10T15:19:15;18.47;44.15
74537;SHT31;63013;51.104;-115.370;2023-05-10T15:21:43;18.47;44.19
74537;SHT31;63013;51.104;-115.370;2023-05-10T15:24:10;18.47;44.12
74537;SHT31;63013;51.104;-115.370;2023-05-10T15:26:37;18.48;44.16
74537;SHT31;63013;51.104;-115.370;2023-05-10T15:29:03;18.48;44.16
74537;SHT31;63013;51.104;-115.370;2023-05-10T15:31:31;18.48;44.27
74537;SHT31;63013;51.104;-115.370;2023-05-10T15:34:01;18.48;44.37
74537;SHT31;63013;51.104;-115.370;2023-05-10T15:36:28;18.48;44.40
74537;SHT31;63013;51.104;-115.370;2023-05-10T15:38:57;18.49;44.39